createdAt,value
2022-08-17T00:02:21.220Z,16.48
2022-08-17T00:05:32.992Z,16.46
2022-08-17T00:08:42.180Z,16.48
2022-08-17T00:12:41.203Z,16.48
2022-08-17T00:15:11.150Z,16.49
2022-08-17T00:19:01.749Z,16.48
2022-08-17T00:22:31.394Z,16.65
2022-08-17T00:25:10.931Z,16.80
2022-08-17T00:28:16.657Z,16.83
2022-08-17T00:31:21.057Z,16.93
2022-08-17T00:34:27.881Z,17.09
2022-08-17T00:37:32.135Z,17.22
2022-08-17T00:40:44.220Z,17.30
2022-08-17T00:43:52.414Z,17.27
2022-08-17T00:46:56.792Z,16.82
2022-08-17T00:50:00.139Z,16.98
2022-08-17T00:53:06.020Z,17.21
2022-08-17T00:56:14.444Z,17.29
2022-08-17T00:59:23.674Z,17.30
2022-08-17T01:02:28.396Z,17.44
2022-08-17T01:05:35.174Z,17.58
2022-08-17T01:08:40.527Z,17.45
2022-08-17T01:11:45.370Z,17.53
2022-08-17T01:14:49.166Z,17.61
2022-08-17T01:17:53.308Z,17.78
2022-08-17T01:20:59.373Z,17.94
2022-08-17T01:24:04.263Z,18.03
2022-08-17T01:27:10.513Z,18.18
2022-08-17T01:30:58.172Z,18.15
2022-08-17T01:33:38.600Z,18.28
2022-08-17T01:36:45.554Z,18.41
2022-08-17T01:40:01.064Z,18.41
2022-08-17T01:43:27.271Z,18.57
2022-08-17T01:46:35.364Z,18.59
2022-08-17T01:49:39.130Z,18.57
2022-08-17T01:52:45.331Z,18.59
2022-08-17T01:55:52.642Z,18.54
2022-08-17T01:58:57.145Z,18.95
2022-08-17T02:02:01.348Z,19.18
2022-08-17T02:05:05.931Z,19.40
2022-08-17T02:08:09.005Z,19.39
2022-08-17T02:11:23.756Z,19.39
2022-08-17T02:14:28.136Z,19.67
2022-08-17T02:17:31.451Z,19.97
2022-08-17T02:20:42.244Z,20.15
2022-08-17T02:23:49.311Z,20.15
2022-08-17T02:26:53.447Z,19.81
2022-08-17T02:29:56.564Z,19.95
2022-08-17T02:33:00.178Z,19.62
2022-08-17T02:36:12.293Z,19.43
2022-08-17T02:39:15.670Z,19.20
2022-08-17T02:42:19.598Z,19.34
2022-08-17T02:45:24.691Z,19.48
2022-08-17T02:48:31.215Z,19.50
2022-08-17T02:51:36.020Z,19.72
2022-08-17T02:54:42.376Z,19.50
2022-08-17T02:57:46.512Z,19.67
2022-08-17T03:00:50.566Z,19.61
2022-08-17T03:03:54.600Z,19.80
2022-08-17T03:06:58.800Z,19.63
2022-08-17T03:10:02.048Z,19.53
2022-08-17T03:13:06.514Z,19.75
2022-08-17T03:16:10.027Z,19.58
2022-08-17T03:19:14.142Z,19.90
2022-08-17T03:22:36.623Z,19.90
2022-08-17T03:25:44.210Z,19.78
2022-08-17T03:28:47.844Z,19.62
2022-08-17T03:31:51.766Z,19.78
2022-08-17T03:35:00.698Z,20.07
2022-08-17T03:38:05.737Z,20.24
2022-08-17T03:41:09.639Z,20.72
2022-08-17T03:44:13.702Z,20.62
2022-08-17T03:47:35.660Z,20.82
2022-08-17T03:50:59.521Z,21.34
2022-08-17T03:54:21.408Z,22.16
2022-08-17T03:57:25.726Z,22.99
2022-08-17T04:00:29.129Z,22.96
2022-08-17T04:03:32.988Z,22.96
2022-08-17T04:06:37.014Z,22.97
2022-08-17T04:09:40.680Z,23.56
2022-08-17T04:12:49.729Z,23.72
2022-08-17T04:15:55.246Z,23.44
2022-08-17T04:18:59.298Z,24.11
2022-08-17T04:22:04.505Z,24.03
2022-08-17T04:25:17.034Z,23.61
2022-08-17T04:28:21.572Z,23.25
2022-08-17T04:31:26.538Z,23.98
2022-08-17T04:34:30.157Z,24.17
2022-08-17T04:37:34.210Z,24.48
2022-08-17T04:40:56.578Z,24.57
2022-08-17T04:43:59.972Z,23.97
2022-08-17T04:47:03.999Z,23.87
2022-08-17T04:50:08.695Z,23.39
2022-08-17T04:53:13.061Z,22.88
2022-08-17T04:56:18.145Z,23.26
2022-08-17T04:59:23.491Z,23.61
2022-08-17T05:02:27.539Z,23.93
2022-08-17T05:05:34.372Z,24.15
2022-08-17T05:08:39.671Z,24.13
2022-08-17T05:11:44.826Z,24.31
2022-08-17T05:14:48.707Z,24.99
2022-08-17T05:17:52.453Z,24.88
2022-08-17T05:20:57.036Z,24.48
2022-08-17T05:24:00.935Z,24.86
2022-08-17T05:27:09.016Z,25.36
2022-08-17T05:30:13.667Z,25.09
2022-08-17T05:33:23.911Z,25.56
2022-08-17T05:36:41.564Z,25.92
2022-08-17T05:39:48.015Z,25.43
2022-08-17T05:42:51.872Z,26.86
2022-08-17T05:46:18.360Z,27.35
2022-08-17T05:49:28.153Z,28.52
2022-08-17T05:52:50.754Z,29.31
2022-08-17T05:55:54.556Z,28.29
2022-08-17T05:59:10.331Z,28.94
2022-08-17T06:02:47.907Z,28.31
2022-08-17T06:06:31.562Z,27.78
2022-08-17T06:09:57.602Z,27.04
2022-08-17T06:13:17.756Z,26.52
2022-08-17T06:16:34.354Z,28.49
2022-08-17T06:19:48.871Z,29.86
2022-08-17T06:22:57.182Z,29.72
2022-08-17T06:26:06.214Z,32.12
2022-08-17T06:29:25.881Z,34.04
2022-08-17T06:32:30.358Z,36.65
2022-08-17T06:35:40.623Z,37.91
2022-08-17T06:39:14.705Z,39.80
2022-08-17T06:43:05.830Z,36.49
2022-08-17T06:46:49.540Z,32.27
2022-08-17T06:50:08.565Z,29.24
2022-08-17T06:53:31.000Z,27.74
2022-08-17T06:56:54.163Z,26.86
2022-08-17T07:00:03.807Z,27.09
2022-08-17T07:03:16.051Z,27.68
2022-08-17T07:06:23.945Z,28.89
2022-08-17T07:09:38.837Z,28.32
2022-08-17T07:12:45.682Z,27.98
2022-08-17T07:15:56.411Z,27.93
2022-08-17T07:19:03.752Z,28.02
2022-08-17T07:22:11.213Z,28.19
2022-08-17T07:25:20.932Z,28.35
2022-08-17T07:28:24.425Z,28.71
2022-08-17T07:31:34.354Z,29.08
2022-08-17T07:35:16.152Z,29.76
2022-08-17T07:38:25.416Z,29.62
2022-08-17T07:41:53.519Z,29.23
2022-08-17T07:44:58.929Z,28.75
2022-08-17T07:48:20.928Z,28.65
2022-08-17T07:51:46.646Z,29.12
2022-08-17T07:54:50.283Z,29.25
2022-08-17T07:57:59.077Z,28.92
2022-08-17T08:01:18.810Z,27.28
2022-08-17T08:04:49.681Z,26.82
2022-08-17T08:08:03.786Z,29.20
2022-08-17T08:11:28.765Z,30.25
2022-08-17T08:14:39.073Z,31.32
2022-08-17T08:18:00.066Z,34.78
2022-08-17T08:21:09.926Z,36.32
2022-08-17T08:24:31.809Z,36.22
2022-08-17T08:27:46.743Z,34.60
2022-08-17T08:30:58.780Z,31.61
2022-08-17T08:34:47.415Z,30.51
2022-08-17T08:38:14.608Z,33.35
2022-08-17T08:41:20.546Z,34.25
2022-08-17T08:45:00.264Z,34.83
2022-08-17T08:48:22.883Z,35.10
2022-08-17T08:52:00.442Z,36.57
2022-08-17T08:55:08.204Z,37.27
2022-08-17T08:58:32.022Z,38.26
2022-08-17T09:02:21.106Z,38.45
2022-08-17T09:05:30.848Z,37.11
2022-08-17T09:08:56.118Z,35.64
2022-08-17T09:12:17.706Z,36.37
2022-08-17T09:15:43.902Z,34.21
2022-08-17T09:19:01.333Z,35.40
2022-08-17T09:22:27.144Z,36.82
2022-08-17T09:25:36.351Z,37.57
2022-08-17T09:28:45.244Z,38.00
2022-08-17T09:31:55.983Z,37.48
2022-08-17T09:35:06.164Z,33.86
2022-08-17T09:38:51.706Z,33.89
2022-08-17T09:42:12.648Z,33.61
2022-08-17T09:45:30.764Z,33.49
2022-08-17T09:48:44.180Z,36.43
2022-08-17T09:51:55.879Z,37.46
2022-08-17T09:55:02.505Z,37.51
2022-08-17T09:58:21.870Z,38.05
2022-08-17T10:01:44.340Z,37.76
2022-08-17T10:05:04.891Z,37.58
2022-08-17T10:08:24.798Z,36.87
2022-08-17T10:11:55.914Z,36.70
2022-08-17T10:15:07.981Z,35.64
2022-08-17T10:18:12.761Z,35.87
2022-08-17T10:21:37.230Z,35.17
2022-08-17T10:25:21.739Z,35.14
2022-08-17T10:28:33.894Z,34.36
2022-08-17T10:31:52.980Z,34.02
2022-08-17T10:34:59.911Z,33.52
2022-08-17T10:38:27.919Z,32.09
2022-08-17T10:41:36.937Z,30.05
2022-08-17T10:44:56.999Z,28.38
2022-08-17T10:48:22.494Z,27.27
2022-08-17T10:51:39.093Z,27.01
2022-08-17T10:54:49.022Z,26.22
2022-08-17T10:57:55.729Z,25.80
2022-08-17T11:01:00.251Z,25.66
2022-08-17T11:04:19.633Z,25.77
2022-08-17T11:08:08.870Z,25.53
2022-08-17T11:11:24.194Z,24.80
2022-08-17T11:14:47.718Z,24.73
2022-08-17T11:18:02.375Z,24.70
2022-08-17T11:21:24.064Z,24.44
2022-08-17T11:24:31.515Z,24.00
2022-08-17T11:27:37.194Z,23.83
2022-08-17T11:30:49.395Z,23.51
2022-08-17T11:34:01.837Z,23.28
2022-08-17T11:37:25.050Z,23.06
2022-08-17T11:40:55.198Z,22.85
2022-08-17T11:44:11.421Z,22.68
2022-08-17T11:47:41.859Z,22.51
2022-08-17T11:51:25.712Z,22.36
2022-08-17T11:54:36.626Z,22.14
2022-08-17T11:57:43.114Z,22.01
2022-08-17T12:00:46.027Z,21.85
2022-08-17T12:03:55.822Z,21.75
2022-08-17T12:07:21.757Z,21.57
2022-08-17T12:10:32.997Z,21.36
2022-08-17T12:13:45.010Z,21.25
2022-08-17T12:17:10.570Z,21.16
2022-08-17T12:20:21.956Z,21.03
2022-08-17T12:23:44.171Z,21.02
2022-08-17T12:26:57.842Z,20.97
2022-08-17T12:30:07.901Z,20.62
2022-08-17T12:33:28.139Z,20.35
2022-08-17T12:36:33.826Z,20.15
2022-08-17T12:39:39.641Z,20.11
2022-08-17T12:43:05.529Z,20.16
2022-08-17T12:46:17.854Z,20.19
2022-08-17T12:49:25.745Z,20.18
2022-08-17T12:52:33.473Z,20.12
2022-08-17T12:55:39.280Z,20.06
2022-08-17T12:58:55.272Z,19.96
2022-08-17T13:02:00.920Z,19.72
2022-08-17T13:05:06.183Z,19.68
2022-08-17T13:08:16.402Z,19.67
2022-08-17T13:11:24.944Z,19.64
2022-08-17T13:14:29.883Z,19.56
2022-08-17T13:17:37.539Z,19.49
2022-08-17T13:20:40.775Z,19.47
2022-08-17T13:23:56.823Z,19.41
2022-08-17T13:27:00.943Z,19.19
2022-08-17T13:30:13.153Z,19.09
2022-08-17T13:33:34.943Z,18.97
2022-08-17T13:36:48.934Z,18.88
2022-08-17T13:39:55.104Z,18.93
2022-08-17T13:42:59.568Z,18.88
2022-08-17T13:46:31.657Z,18.88
2022-08-17T13:49:49.009Z,18.85
2022-08-17T13:52:52.457Z,18.81
2022-08-17T13:56:02.155Z,18.71
2022-08-17T13:59:13.508Z,18.62
2022-08-17T14:02:21.201Z,18.49
2022-08-17T14:05:25.183Z,18.35
2022-08-17T14:08:31.653Z,18.32
2022-08-17T14:11:34.704Z,18.31
2022-08-17T14:14:39.305Z,18.22
2022-08-17T14:17:43.057Z,18.20
2022-08-17T14:20:46.523Z,18.14
2022-08-17T14:23:54.597Z,18.01
2022-08-17T14:27:01.165Z,17.96
2022-08-17T14:30:06.888Z,17.86
2022-08-17T14:33:10.733Z,17.78
2022-08-17T14:36:13.779Z,17.73
2022-08-17T14:39:19.105Z,17.70
2022-08-17T14:42:27.427Z,17.63
2022-08-17T14:45:33.519Z,17.57
2022-08-17T14:48:39.327Z,17.54
2022-08-17T14:51:44.141Z,17.43
2022-08-17T14:54:51.814Z,17.44
2022-08-17T14:57:55.944Z,17.40
2022-08-17T15:00:59.627Z,17.30
2022-08-17T15:04:03.293Z,17.24
2022-08-17T15:07:07.185Z,17.16
2022-08-17T15:10:12.809Z,17.09
2022-08-17T15:13:23.971Z,17.10
2022-08-17T15:16:28.056Z,17.03
2022-08-17T15:19:31.804Z,17.01
2022-08-17T15:22:35.672Z,16.89
2022-08-17T15:25:39.403Z,16.86
2022-08-17T15:28:43.222Z,16.84
2022-08-17T15:31:51.466Z,16.79
2022-08-17T15:34:58.551Z,16.82
2022-08-17T15:38:10.790Z,16.76
2022-08-17T15:41:19.079Z,16.60
2022-08-17T15:44:22.431Z,16.46
2022-08-17T15:47:37.910Z,16.31
2022-08-17T15:50:43.170Z,16.18
2022-08-17T15:53:50.081Z,16.16
2022-08-17T15:56:53.654Z,16.00
2022-08-17T15:59:59.208Z,15.77
2022-08-17T16:03:46.899Z,15.62
2022-08-17T16:06:30.689Z,15.53
2022-08-17T16:09:34.052Z,15.36
2022-08-17T16:12:38.817Z,15.33
2022-08-17T16:15:42.995Z,15.22
2022-08-17T16:18:46.408Z,15.17
2022-08-17T16:21:57.738Z,15.19
2022-08-17T16:25:05.542Z,15.33
2022-08-17T16:28:08.924Z,15.39
2022-08-17T16:31:12.557Z,15.43
2022-08-17T16:34:18.661Z,15.42
2022-08-17T16:37:23.196Z,15.46
2022-08-17T16:40:35.740Z,15.51
2022-08-17T16:43:40.197Z,15.45
2022-08-17T16:46:45.629Z,15.41
2022-08-17T16:49:50.821Z,15.43
2022-08-17T16:53:23.022Z,15.50
2022-08-17T16:56:27.181Z,15.45
2022-08-17T16:59:42.162Z,15.40
2022-08-17T17:02:50.682Z,15.37
2022-08-17T17:06:16.380Z,15.41
2022-08-17T17:09:27.848Z,15.37
2022-08-17T17:13:01.107Z,15.30
2022-08-17T17:16:22.572Z,15.37
2022-08-17T17:19:59.608Z,15.31
2022-08-17T17:23:37.279Z,15.27
2022-08-17T17:27:32.372Z,15.13
2022-08-17T17:31:11.710Z,14.99
2022-08-17T17:34:17.156Z,14.94
2022-08-17T17:37:28.293Z,14.87
2022-08-17T17:40:42.565Z,14.81
2022-08-17T17:43:50.099Z,14.77
2022-08-17T17:46:57.395Z,14.75
2022-08-17T17:50:02.679Z,14.82
2022-08-17T17:53:35.449Z,14.77
2022-08-17T17:56:55.835Z,14.60
2022-08-17T17:59:59.453Z,14.52
2022-08-17T18:03:29.865Z,14.47
2022-08-17T18:06:58.501Z,14.46
2022-08-17T18:10:29.462Z,14.51
2022-08-17T18:13:50.608Z,14.47
2022-08-17T18:17:01.080Z,14.41
2022-08-17T18:20:07.454Z,14.27
2022-08-17T18:23:11.481Z,14.19
2022-08-17T18:26:44.983Z,14.22
2022-08-17T18:29:51.178Z,14.14
2022-08-17T18:32:54.090Z,14.23
2022-08-17T18:35:58.873Z,14.04
2022-08-17T18:39:18.358Z,13.93
2022-08-17T18:42:30.593Z,13.94
2022-08-17T18:45:39.859Z,13.97
2022-08-17T18:48:59.477Z,13.93
2022-08-17T18:52:17.441Z,13.76
2022-08-17T18:55:24.752Z,13.57
2022-08-17T18:58:28.629Z,13.44
2022-08-17T19:02:10.018Z,13.56
2022-08-17T19:05:30.153Z,13.60
2022-08-17T19:08:37.155Z,13.66
2022-08-17T19:11:40.900Z,13.66
2022-08-17T19:14:46.151Z,13.67
2022-08-17T19:18:05.053Z,13.63
2022-08-17T19:21:18.982Z,13.52
2022-08-17T19:24:23.877Z,13.38
2022-08-17T19:27:57.389Z,13.42
2022-08-17T19:31:07.656Z,13.36
2022-08-17T19:34:15.769Z,13.32
2022-08-17T19:38:03.505Z,13.27
2022-08-17T19:41:37.505Z,13.27
2022-08-17T19:45:00.283Z,13.22
2022-08-17T19:48:27.403Z,13.19
2022-08-17T19:51:34.974Z,13.01
2022-08-17T19:54:48.846Z,13.02
2022-08-17T19:58:17.879Z,13.00
2022-08-17T20:01:41.922Z,12.96
2022-08-17T20:04:49.952Z,12.95
2022-08-17T20:08:11.455Z,12.96
2022-08-17T20:11:29.106Z,12.92
2022-08-17T20:14:40.921Z,12.95
2022-08-17T20:18:00.763Z,12.91
2022-08-17T20:21:07.286Z,12.84
2022-08-17T20:24:24.177Z,12.82
2022-08-17T20:27:35.514Z,12.76
2022-08-17T20:30:41.643Z,12.69
2022-08-17T20:33:45.654Z,12.62
2022-08-17T20:37:14.966Z,12.67
2022-08-17T20:40:22.497Z,12.49
2022-08-17T20:43:35.463Z,12.41
2022-08-17T20:46:39.154Z,12.28
2022-08-17T20:49:42.044Z,12.23
2022-08-17T20:52:51.401Z,12.25
2022-08-17T20:55:56.724Z,12.17
2022-08-17T20:59:01.411Z,12.12
2022-08-17T21:02:18.108Z,12.12
2022-08-17T21:05:34.503Z,12.17
2022-08-17T21:09:20.050Z,12.21
2022-08-17T21:12:48.453Z,12.17
2022-08-17T21:16:41.788Z,12.15
2022-08-17T21:20:13.542Z,12.12
2022-08-17T21:23:29.097Z,12.06
2022-08-17T21:26:39.442Z,12.07
2022-08-17T21:30:06.645Z,12.18
2022-08-17T21:33:32.167Z,12.18
2022-08-17T21:36:36.084Z,12.15
2022-08-17T21:39:41.757Z,12.11
2022-08-17T21:42:51.060Z,12.13
2022-08-17T21:46:07.229Z,12.15
2022-08-17T21:49:14.292Z,12.16
2022-08-17T21:52:22.655Z,12.19
2022-08-17T21:55:29.544Z,12.25
2022-08-17T21:58:37.069Z,12.32
2022-08-17T22:01:43.846Z,12.37
2022-08-17T22:05:00.020Z,12.38
2022-08-17T22:08:16.527Z,12.37
2022-08-17T22:11:20.530Z,12.33
2022-08-17T22:14:52.798Z,12.44
2022-08-17T22:17:59.052Z,12.55
2022-08-17T22:21:05.187Z,12.67
2022-08-17T22:24:25.229Z,12.73
2022-08-17T22:27:51.463Z,12.79
2022-08-17T22:31:04.880Z,12.90
2022-08-17T22:34:15.154Z,13.24
2022-08-17T22:37:28.512Z,13.12
2022-08-17T22:40:35.346Z,13.06
2022-08-17T22:43:43.720Z,12.97
2022-08-17T22:46:53.651Z,13.04
2022-08-17T22:50:00.846Z,13.26
2022-08-17T22:53:39.249Z,13.36
2022-08-17T22:57:21.484Z,13.47
2022-08-17T23:00:46.518Z,13.60
2022-08-17T23:04:04.648Z,13.56
2022-08-17T23:07:09.383Z,13.63
2022-08-17T23:10:14.059Z,13.74
2022-08-17T23:13:18.201Z,13.76
2022-08-17T23:16:23.123Z,13.78
2022-08-17T23:19:28.174Z,13.86
2022-08-17T23:22:33.730Z,13.95
2022-08-17T23:25:37.770Z,14.04
2022-08-17T23:28:41.609Z,14.21
2022-08-17T23:31:45.561Z,14.25
2022-08-17T23:34:50.894Z,14.25
2022-08-17T23:37:56.480Z,14.38
2022-08-17T23:41:02.765Z,14.54
2022-08-17T23:44:07.374Z,14.55
2022-08-17T23:47:11.925Z,14.56
2022-08-17T23:50:16.969Z,14.56
2022-08-17T23:53:20.857Z,14.56
2022-08-17T23:56:26.883Z,14.51
2022-08-17T23:59:29.935Z,14.57
